createdAt,value
2018-05-31T00:00:06.083Z,19.50
2018-05-31T00:01:05.428Z,19.50
2018-05-31T00:02:10.443Z,19.40
2018-05-31T00:03:05.382Z,19.50
2018-05-31T00:04:06.502Z,19.40
2018-05-31T00:05:05.191Z,19.40
2018-05-31T00:06:08.590Z,19.40
2018-05-31T00:07:08.412Z,19.40
2018-05-31T00:08:06.234Z,19.30
2018-05-31T00:09:05.275Z,19.40
2018-05-31T00:10:18.590Z,19.30
2018-05-31T00:11:10.853Z,19.30
2018-05-31T00:12:08.589Z,19.40
2018-05-31T00:13:05.250Z,19.40
2018-05-31T00:14:06.007Z,19.40
2018-05-31T00:15:06.122Z,19.40
2018-05-31T00:16:07.700Z,19.40
2018-05-31T00:17:07.743Z,19.30
2018-05-31T00:18:05.289Z,19.30
2018-05-31T00:19:08.696Z,19.30
2018-05-31T00:20:05.743Z,19.30
2018-05-31T00:21:07.925Z,19.30
2018-05-31T00:22:08.099Z,19.30
2018-05-31T00:23:05.663Z,19.30
2018-05-31T00:24:07.879Z,19.30
2018-05-31T00:25:05.845Z,19.20
2018-05-31T00:26:08.235Z,19.30
2018-05-31T00:27:05.718Z,19.20
2018-05-31T00:28:08.025Z,19.30
2018-05-31T00:29:05.661Z,19.30
2018-05-31T00:30:05.383Z,19.30
2018-05-31T00:31:08.508Z,19.30
2018-05-31T00:32:08.387Z,19.30
2018-05-31T00:33:06.021Z,19.30
2018-05-31T00:34:10.669Z,19.30
2018-05-31T00:35:06.106Z,19.20
2018-05-31T00:36:08.456Z,19.20
2018-05-31T00:37:06.040Z,19.20
2018-05-31T00:38:06.283Z,19.20
2018-05-31T00:39:08.132Z,19.20
2018-05-31T00:40:08.261Z,19.10
2018-05-31T00:41:08.328Z,19.10
2018-05-31T00:42:08.466Z,19.10
2018-05-31T00:43:06.105Z,19.10
2018-05-31T00:44:06.198Z,19.10
2018-05-31T00:45:06.071Z,19.10
2018-05-31T00:46:10.964Z,19.00
2018-05-31T00:47:05.477Z,19.10
2018-05-31T00:48:06.175Z,19.00
2018-05-31T00:49:08.691Z,19.00
2018-05-31T00:50:05.574Z,19.00
2018-05-31T00:51:05.365Z,19.00
2018-05-31T00:52:06.053Z,19.00
2018-05-31T00:53:08.557Z,19.00
2018-05-31T00:54:08.619Z,19.00
2018-05-31T00:55:06.092Z,19.00
2018-05-31T00:56:05.746Z,19.00
2018-05-31T00:57:05.597Z,19.00
2018-05-31T00:58:07.871Z,19.00
2018-05-31T00:59:10.373Z,19.00
2018-05-31T01:00:05.782Z,19.00
2018-05-31T01:01:10.660Z,19.00
2018-05-31T01:02:06.147Z,19.00
2018-05-31T01:03:06.319Z,19.00
2018-05-31T01:04:06.501Z,19.00
2018-05-31T01:05:07.765Z,19.00
2018-05-31T01:06:07.834Z,19.00
2018-05-31T01:07:05.856Z,19.00
2018-05-31T01:08:05.854Z,19.00
2018-05-31T01:09:05.764Z,18.90
2018-05-31T01:10:05.788Z,18.90
2018-05-31T01:11:05.777Z,19.00
2018-05-31T01:12:10.542Z,18.90
2018-05-31T01:13:08.576Z,18.90
2018-05-31T01:14:11.008Z,18.90
2018-05-31T01:15:05.353Z,18.90
2018-05-31T01:16:08.691Z,18.90
2018-05-31T01:17:05.465Z,18.80
2018-05-31T01:18:05.242Z,18.80
2018-05-31T01:19:08.467Z,18.80
2018-05-31T01:20:07.923Z,18.80
2018-05-31T01:21:08.085Z,18.80
2018-05-31T01:22:06.267Z,18.80
2018-05-31T01:23:10.984Z,18.80
2018-05-31T01:24:05.353Z,18.80
2018-05-31T01:25:06.187Z,18.80
2018-05-31T01:26:08.556Z,18.80
2018-05-31T01:27:05.097Z,18.80
2018-05-31T01:28:10.961Z,18.80
2018-05-31T01:29:06.098Z,18.80
2018-05-31T01:30:05.818Z,18.80
2018-05-31T01:31:05.955Z,18.80
2018-05-31T01:32:06.113Z,18.90
2018-05-31T01:33:05.235Z,18.80
2018-05-31T01:34:05.712Z,18.80
2018-05-31T01:35:08.067Z,18.80
2018-05-31T01:36:08.112Z,18.80
2018-05-31T01:37:05.624Z,18.80
2018-05-31T01:38:05.264Z,18.80
2018-05-31T01:39:06.144Z,18.80
2018-05-31T01:40:05.228Z,18.80
2018-05-31T01:41:05.280Z,18.80
2018-05-31T01:42:05.333Z,18.80
2018-05-31T01:43:05.842Z,18.80
2018-05-31T01:44:11.274Z,18.80
2018-05-31T01:45:05.826Z,18.80
2018-05-31T01:46:05.719Z,18.80
2018-05-31T01:47:07.921Z,18.70
2018-05-31T01:48:08.125Z,18.70
2018-05-31T01:49:05.993Z,18.70
2018-05-31T01:50:05.606Z,18.60
2018-05-31T01:51:05.599Z,18.60
2018-05-31T01:52:05.376Z,18.60
2018-05-31T01:53:06.442Z,18.60
2018-05-31T01:54:08.701Z,18.50
2018-05-31T01:55:08.447Z,18.50
2018-05-31T01:56:08.586Z,18.50
2018-05-31T01:57:08.539Z,18.40
2018-05-31T01:58:05.382Z,18.50
2018-05-31T01:59:07.961Z,18.40
2018-05-31T02:00:05.476Z,18.50
2018-05-31T02:01:08.607Z,18.40
2018-05-31T02:02:08.432Z,18.40
2018-05-31T02:03:05.495Z,18.40
2018-05-31T02:04:05.753Z,18.40
2018-05-31T02:05:08.044Z,18.30
2018-05-31T02:06:05.782Z,18.30
2018-05-31T02:07:07.976Z,18.30
2018-05-31T02:08:08.208Z,18.30
2018-05-31T02:09:05.815Z,18.30
2018-05-31T02:10:05.512Z,18.30
2018-05-31T02:11:05.671Z,18.30
2018-05-31T02:12:05.873Z,18.30
2018-05-31T02:13:08.257Z,18.30
2018-05-31T02:14:08.391Z,18.40
2018-05-31T02:15:05.864Z,18.30
2018-05-31T02:16:05.870Z,18.40
2018-05-31T02:17:08.424Z,18.40
2018-05-31T02:18:08.564Z,18.30
2018-05-31T02:19:07.118Z,18.30
2018-05-31T02:20:06.369Z,18.30
2018-05-31T02:21:05.952Z,18.30
2018-05-31T02:22:05.563Z,18.30
2018-05-31T02:23:05.565Z,18.20
2018-05-31T02:24:11.412Z,18.20
2018-05-31T02:25:08.566Z,18.20
2018-05-31T02:26:06.172Z,18.20
2018-05-31T02:27:05.286Z,18.10
2018-05-31T02:28:05.447Z,18.20
2018-05-31T02:29:05.236Z,18.20
2018-05-31T02:30:06.476Z,18.20
2018-05-31T02:31:07.677Z,18.20
2018-05-31T02:32:11.474Z,18.10
2018-05-31T02:33:06.072Z,18.10
2018-05-31T02:34:06.196Z,18.10
2018-05-31T02:35:05.117Z,18.10
2018-05-31T02:36:08.358Z,18.10
2018-05-31T02:37:05.847Z,18.10
2018-05-31T02:38:10.709Z,18.10
2018-05-31T02:39:05.874Z,18.10
2018-05-31T02:40:08.694Z,18.10
2018-05-31T02:41:05.804Z,18.10
2018-05-31T02:42:05.529Z,18.10
2018-05-31T02:43:05.315Z,18.10
2018-05-31T02:44:11.217Z,18.10
2018-05-31T02:45:10.447Z,18.10
2018-05-31T02:46:11.005Z,18.10
2018-05-31T02:47:05.751Z,18.10
2018-05-31T02:48:06.209Z,18.10
2018-05-31T02:49:06.522Z,18.10
2018-05-31T02:50:05.542Z,18.10
2018-05-31T02:51:07.874Z,18.10
2018-05-31T02:52:05.300Z,18.10
2018-05-31T02:53:06.068Z,18.10
2018-05-31T02:54:05.936Z,18.10
2018-05-31T02:55:05.765Z,18.10
2018-05-31T02:56:10.523Z,18.00
2018-05-31T02:57:05.230Z,18.00
2018-05-31T02:58:05.833Z,18.00
2018-05-31T02:59:08.088Z,18.00
2018-05-31T03:00:05.705Z,18.10
2018-05-31T03:01:05.731Z,18.00
2018-05-31T03:02:05.321Z,18.10
2018-05-31T03:03:08.554Z,18.10
2018-05-31T03:04:06.167Z,18.10
2018-05-31T03:05:06.197Z,18.10
2018-05-31T03:06:06.027Z,18.10
2018-05-31T03:07:05.793Z,18.10
2018-05-31T03:08:05.563Z,18.10
2018-05-31T03:09:05.268Z,18.10
2018-05-31T03:10:06.004Z,18.10
2018-05-31T03:11:06.032Z,18.10
2018-05-31T03:12:08.168Z,18.10
2018-05-31T03:13:06.215Z,18.00
2018-05-31T03:14:10.712Z,18.00
2018-05-31T03:15:05.606Z,18.00
2018-05-31T03:16:05.738Z,18.00
2018-05-31T03:17:05.446Z,18.00
2018-05-31T03:18:08.592Z,18.00
2018-05-31T03:19:07.836Z,18.00
2018-05-31T03:20:05.852Z,18.00
2018-05-31T03:21:05.861Z,18.00
2018-05-31T03:22:05.461Z,18.00
2018-05-31T03:23:05.123Z,18.00
2018-05-31T03:24:06.103Z,18.00
2018-05-31T03:25:06.007Z,18.00
2018-05-31T03:26:05.621Z,18.00
2018-05-31T03:27:07.917Z,18.00
2018-05-31T03:28:05.743Z,18.00
2018-05-31T03:29:06.019Z,18.00
2018-05-31T03:30:08.196Z,18.00
2018-05-31T03:31:13.531Z,18.00
2018-05-31T03:32:06.080Z,18.00
2018-05-31T03:33:08.437Z,18.00
2018-05-31T03:34:06.038Z,17.90
2018-05-31T03:35:05.858Z,18.00
2018-05-31T03:36:05.691Z,18.00
2018-05-31T03:37:05.900Z,18.00
2018-05-31T03:38:07.900Z,18.10
2018-05-31T03:39:05.827Z,18.10
2018-05-31T03:40:06.027Z,18.10
2018-05-31T03:41:13.770Z,18.10
2018-05-31T03:42:05.235Z,18.10
2018-05-31T03:43:06.254Z,18.10
2018-05-31T03:44:06.123Z,18.10
2018-05-31T03:45:08.750Z,18.10
2018-05-31T03:46:09.221Z,18.10
2018-05-31T03:47:10.549Z,18.10
2018-05-31T03:48:06.210Z,18.10
2018-05-31T03:49:05.801Z,18.10
2018-05-31T03:50:09.038Z,18.20
2018-05-31T03:51:06.429Z,18.10
2018-05-31T03:52:06.626Z,18.20
2018-05-31T03:53:10.395Z,18.20
2018-05-31T03:54:05.827Z,18.30
2018-05-31T03:55:08.111Z,18.40
2018-05-31T03:56:13.557Z,18.50
2018-05-31T03:57:06.182Z,18.50
2018-05-31T03:58:05.184Z,18.60
2018-05-31T03:59:08.612Z,18.70
2018-05-31T04:00:05.254Z,18.70
2018-05-31T04:01:06.234Z,18.80
2018-05-31T04:02:06.312Z,18.80
2018-05-31T04:03:08.095Z,18.80
2018-05-31T04:04:08.181Z,18.70
2018-05-31T04:05:08.176Z,18.70
2018-05-31T04:06:10.680Z,18.70
2018-05-31T04:07:05.209Z,18.70
2018-05-31T04:08:05.164Z,18.70
2018-05-31T04:09:08.567Z,18.60
2018-05-31T04:10:06.292Z,18.60
2018-05-31T04:11:06.094Z,18.60
2018-05-31T04:12:05.831Z,18.60
2018-05-31T04:13:10.780Z,18.60
2018-05-31T04:14:05.528Z,18.60
2018-05-31T04:15:05.566Z,18.70
2018-05-31T04:16:06.089Z,18.60
2018-05-31T04:17:09.326Z,18.60
2018-05-31T04:18:06.161Z,18.60
2018-05-31T04:19:08.528Z,18.60
2018-05-31T04:20:11.140Z,18.60
2018-05-31T04:21:05.643Z,18.60
2018-05-31T04:22:05.775Z,18.60
2018-05-31T04:23:05.812Z,18.60
2018-05-31T04:24:05.809Z,18.60
2018-05-31T04:25:11.645Z,18.60
2018-05-31T04:26:08.023Z,18.60
2018-05-31T04:27:08.254Z,18.70
2018-05-31T04:28:08.297Z,18.70
2018-05-31T04:29:05.789Z,18.70
2018-05-31T04:30:05.522Z,18.70
2018-05-31T04:31:10.363Z,18.80
2018-05-31T04:32:08.444Z,19.00
2018-05-31T04:33:08.477Z,19.10
2018-05-31T04:34:05.749Z,19.10
2018-05-31T04:35:06.331Z,19.30
2018-05-31T04:36:05.964Z,19.40
2018-05-31T04:37:10.964Z,19.60
2018-05-31T04:38:05.569Z,19.80
2018-05-31T04:39:05.251Z,20.00
2018-05-31T04:40:05.964Z,20.20
2018-05-31T04:41:06.130Z,20.40
2018-05-31T04:42:05.962Z,20.60
2018-05-31T04:43:06.003Z,20.80
2018-05-31T04:44:07.944Z,21.10
2018-05-31T04:45:07.976Z,21.30
2018-05-31T04:46:07.788Z,21.40
2018-05-31T04:47:05.265Z,21.40
2018-05-31T04:48:06.409Z,21.60
2018-05-31T04:49:11.295Z,21.70
2018-05-31T04:50:05.865Z,21.80
2018-05-31T04:51:11.025Z,22.10
2018-05-31T04:52:10.774Z,22.20
2018-05-31T04:53:05.892Z,22.20
2018-05-31T04:54:08.095Z,22.50
2018-05-31T04:55:06.199Z,22.40
2018-05-31T04:56:05.863Z,22.60
2018-05-31T04:57:10.446Z,22.90
2018-05-31T04:58:08.462Z,23.00
2018-05-31T04:59:08.250Z,23.20
2018-05-31T05:00:08.499Z,23.30
2018-05-31T05:01:06.014Z,23.30
2018-05-31T05:02:10.556Z,23.40
2018-05-31T05:03:11.117Z,23.60
2018-05-31T05:04:05.588Z,23.60
2018-05-31T05:05:07.920Z,23.80
2018-05-31T05:06:05.428Z,23.80
2018-05-31T05:07:06.470Z,24.00
2018-05-31T05:08:16.397Z,24.20
2018-05-31T05:09:05.898Z,24.20
2018-05-31T05:10:05.654Z,24.30
2018-05-31T05:11:05.490Z,24.40
2018-05-31T05:12:05.597Z,24.50
2018-05-31T05:13:08.929Z,24.60
2018-05-31T05:14:10.491Z,24.80
2018-05-31T05:15:06.094Z,24.80
2018-05-31T05:16:05.859Z,24.80
2018-05-31T05:17:08.105Z,24.90
2018-05-31T05:18:05.560Z,24.90
2018-05-31T05:19:05.565Z,25.00
2018-05-31T05:20:10.374Z,25.10
2018-05-31T05:21:08.417Z,25.20
2018-05-31T05:22:10.850Z,25.20
2018-05-31T05:23:10.475Z,25.30
2018-05-31T05:24:06.226Z,25.30
2018-05-31T05:25:05.780Z,25.40
2018-05-31T05:26:08.257Z,25.50
2018-05-31T05:27:05.845Z,25.40
2018-05-31T05:28:05.755Z,25.50
2018-05-31T05:29:06.015Z,25.50
2018-05-31T05:30:05.936Z,25.50
2018-05-31T05:31:05.701Z,25.60
2018-05-31T05:32:05.486Z,25.60
2018-05-31T05:33:11.096Z,25.70
2018-05-31T05:34:08.055Z,25.80
2018-05-31T05:35:10.715Z,25.90
2018-05-31T05:36:05.877Z,25.90
2018-05-31T05:37:05.654Z,25.90
2018-05-31T05:38:05.904Z,26.00
2018-05-31T05:39:05.817Z,26.10
2018-05-31T05:40:08.124Z,26.20
2018-05-31T05:41:05.844Z,26.20
2018-05-31T05:42:05.522Z,26.30
2018-05-31T05:43:05.219Z,26.40
2018-05-31T05:44:06.457Z,26.60
2018-05-31T05:45:06.514Z,26.60
2018-05-31T05:46:05.377Z,26.80
2018-05-31T05:47:07.731Z,26.90
2018-05-31T05:48:07.971Z,27.00
2018-05-31T05:49:13.153Z,27.10
2018-05-31T05:50:06.064Z,27.00
2018-05-31T05:51:06.000Z,27.20
2018-05-31T05:52:10.796Z,27.20
2018-05-31T05:53:06.235Z,27.20
2018-05-31T05:54:08.717Z,27.40
2018-05-31T05:55:05.642Z,27.40
2018-05-31T05:56:05.709Z,27.40
2018-05-31T05:57:05.354Z,27.50
2018-05-31T05:58:06.138Z,27.50
2018-05-31T05:59:05.693Z,27.60
2018-05-31T06:00:06.100Z,27.70
2018-05-31T06:01:06.245Z,27.80
2018-05-31T06:02:05.674Z,27.80
2018-05-31T06:03:05.546Z,27.90
2018-05-31T06:04:10.447Z,28.10
2018-05-31T06:05:05.222Z,28.10
2018-05-31T06:06:06.142Z,28.20
2018-05-31T06:07:07.939Z,28.40
2018-05-31T06:08:08.518Z,28.40
2018-05-31T06:09:08.700Z,28.50
2018-05-31T06:10:05.326Z,28.40
2018-05-31T06:11:11.261Z,28.50
2018-05-31T06:12:08.300Z,28.50
2018-05-31T06:13:09.184Z,28.60
2018-05-31T06:14:06.005Z,28.60
2018-05-31T06:15:06.209Z,28.60
2018-05-31T06:16:05.927Z,28.70
2018-05-31T06:17:06.108Z,28.70
2018-05-31T06:18:06.306Z,28.80
2018-05-31T06:19:06.259Z,28.80
2018-05-31T06:20:06.014Z,28.90
2018-05-31T06:21:05.620Z,28.90
2018-05-31T06:22:08.188Z,28.90
2018-05-31T06:23:05.620Z,28.90
2018-05-31T06:24:08.663Z,28.90
2018-05-31T06:25:07.689Z,28.90
2018-05-31T06:26:08.596Z,28.80
2018-05-31T06:27:10.307Z,28.80
2018-05-31T06:28:08.413Z,28.70
2018-05-31T06:29:06.038Z,28.70
2018-05-31T06:30:05.908Z,28.60
2018-05-31T06:31:05.653Z,28.50
2018-05-31T06:32:10.480Z,28.50
2018-05-31T06:33:08.514Z,28.30
2018-05-31T06:34:11.117Z,28.20
2018-05-31T06:35:08.327Z,28.00
2018-05-31T06:36:05.817Z,28.10
2018-05-31T06:37:05.623Z,27.90
2018-05-31T06:38:08.558Z,27.70
2018-05-31T06:39:05.992Z,27.70
2018-05-31T06:40:06.772Z,27.60
2018-05-31T06:41:05.853Z,27.60
2018-05-31T06:42:05.532Z,27.40
2018-05-31T06:43:05.197Z,27.30
2018-05-31T06:44:05.842Z,27.20
2018-05-31T06:45:05.716Z,27.00
2018-05-31T06:46:05.471Z,27.00
2018-05-31T06:47:06.247Z,26.90
2018-05-31T06:48:06.035Z,26.70
2018-05-31T06:49:05.811Z,26.70
2018-05-31T06:50:05.851Z,26.70
2018-05-31T06:51:05.560Z,26.60
2018-05-31T06:52:05.179Z,26.50
2018-05-31T06:53:05.184Z,26.40
2018-05-31T06:54:06.124Z,26.40
2018-05-31T06:55:06.261Z,26.40
2018-05-31T06:56:05.882Z,26.40
2018-05-31T06:57:12.187Z,26.40
2018-05-31T06:58:05.808Z,0.00
2018-05-31T06:59:08.816Z,26.60
2018-05-31T07:00:06.161Z,26.60
2018-05-31T07:01:05.844Z,26.60
2018-05-31T07:02:05.859Z,26.70
2018-05-31T07:03:05.903Z,26.80
2018-05-31T07:04:06.055Z,26.90
2018-05-31T07:05:05.893Z,27.00
2018-05-31T07:06:05.653Z,27.10
2018-05-31T07:07:05.614Z,27.20
2018-05-31T07:08:10.673Z,27.30
2018-05-31T07:09:06.021Z,27.20
2018-05-31T07:10:05.278Z,27.30
2018-05-31T07:11:06.064Z,27.40
2018-05-31T07:12:08.749Z,27.50
2018-05-31T07:13:05.260Z,27.50
2018-05-31T07:14:10.995Z,27.60
2018-05-31T07:15:05.586Z,27.60
2018-05-31T07:16:08.127Z,27.80
2018-05-31T07:17:05.684Z,27.80
2018-05-31T07:18:10.497Z,27.90
2018-05-31T07:19:13.508Z,27.90
2018-05-31T07:20:05.966Z,28.00
2018-05-31T07:21:13.235Z,28.00
2018-05-31T07:22:10.798Z,28.00
2018-05-31T07:23:07.907Z,28.00
2018-05-31T07:24:05.428Z,28.00
2018-05-31T07:25:06.326Z,28.00
2018-05-31T07:26:06.512Z,28.10
2018-05-31T07:27:05.222Z,28.10
2018-05-31T07:28:05.850Z,28.10
2018-05-31T07:29:13.137Z,28.20
2018-05-31T07:30:08.158Z,28.30
2018-05-31T07:31:08.209Z,28.40
2018-05-31T07:32:05.999Z,28.30
2018-05-31T07:33:05.706Z,28.40
2018-05-31T07:34:05.258Z,28.50
2018-05-31T07:35:05.640Z,28.50
2018-05-31T07:36:10.414Z,28.60
2018-05-31T07:37:08.651Z,28.70
2018-05-31T07:38:05.903Z,28.70
2018-05-31T07:39:08.145Z,28.80
2018-05-31T07:40:05.953Z,28.80
2018-05-31T07:41:08.165Z,28.90
2018-05-31T07:42:15.985Z,28.90
2018-05-31T07:43:05.785Z,28.90
2018-05-31T07:44:05.821Z,28.80
2018-05-31T07:45:05.806Z,28.80
2018-05-31T07:46:07.944Z,28.90
2018-05-31T07:47:07.960Z,28.90
2018-05-31T07:48:05.383Z,28.90
2018-05-31T07:49:08.749Z,29.00
2018-05-31T07:50:05.254Z,29.00
2018-05-31T07:51:08.484Z,29.10
2018-05-31T07:52:11.190Z,29.00
2018-05-31T07:53:06.190Z,29.10
2018-05-31T07:54:10.977Z,29.20
2018-05-31T07:55:08.253Z,29.20
2018-05-31T07:56:06.861Z,29.20
2018-05-31T07:57:05.522Z,29.20
2018-05-31T07:58:08.110Z,29.20
2018-05-31T07:59:06.146Z,29.20
2018-05-31T08:00:08.302Z,29.20
2018-05-31T08:01:05.756Z,29.20
2018-05-31T08:02:05.598Z,29.20
2018-05-31T08:03:05.968Z,29.20
2018-05-31T08:04:05.560Z,29.30
2018-05-31T08:05:08.084Z,29.40
2018-05-31T08:06:05.303Z,29.30
2018-05-31T08:07:08.624Z,29.40
2018-05-31T08:08:07.798Z,29.40
2018-05-31T08:09:05.258Z,29.40
2018-05-31T08:10:06.231Z,29.50
2018-05-31T08:11:08.523Z,29.50
2018-05-31T08:12:06.443Z,29.50
2018-05-31T08:13:06.270Z,29.50
2018-05-31T08:14:10.492Z,29.60
2018-05-31T08:15:06.046Z,29.60
2018-05-31T08:16:08.559Z,29.60
2018-05-31T08:17:05.981Z,29.60
2018-05-31T08:18:08.294Z,29.70
2018-05-31T08:19:07.877Z,29.70
2018-05-31T08:20:05.423Z,29.60
2018-05-31T08:21:10.332Z,29.70
2018-05-31T08:22:08.795Z,29.80
2018-05-31T08:23:08.196Z,29.80
2018-05-31T08:24:10.767Z,29.90
2018-05-31T08:25:05.952Z,29.90
2018-05-31T08:26:05.510Z,30.00
2018-05-31T08:27:05.207Z,30.00
2018-05-31T08:28:08.327Z,30.00
2018-05-31T08:29:05.955Z,30.00
2018-05-31T08:30:13.230Z,30.00
2018-05-31T08:31:10.397Z,30.00
2018-05-31T08:32:08.430Z,30.00
2018-05-31T08:33:07.823Z,30.00
2018-05-31T08:34:05.355Z,30.00
2018-05-31T08:35:08.604Z,30.10
2018-05-31T08:36:06.138Z,30.10
2018-05-31T08:37:07.892Z,30.20
2018-05-31T08:38:08.019Z,30.10
2018-05-31T08:39:05.604Z,30.20
2018-05-31T08:40:05.406Z,30.20
2018-05-31T08:41:08.663Z,30.20
2018-05-31T08:42:05.633Z,30.20
2018-05-31T08:43:05.971Z,30.20
2018-05-31T08:44:05.973Z,30.20
2018-05-31T08:45:06.001Z,30.20
2018-05-31T08:46:05.787Z,30.20
2018-05-31T08:47:05.615Z,30.20
2018-05-31T08:48:05.830Z,30.20
2018-05-31T08:49:05.297Z,30.20
2018-05-31T08:50:11.027Z,30.20
2018-05-31T08:51:07.998Z,30.20
2018-05-31T08:52:05.843Z,30.20
2018-05-31T08:53:05.537Z,30.20
2018-05-31T08:54:07.898Z,30.20
2018-05-31T08:55:05.335Z,30.20
2018-05-31T08:56:05.396Z,30.10
2018-05-31T08:57:11.198Z,30.10
2018-05-31T08:58:05.783Z,30.10
2018-05-31T08:59:05.712Z,30.10
2018-05-31T09:00:05.330Z,30.10
2018-05-31T09:01:05.223Z,30.20
2018-05-31T09:02:05.159Z,30.20
2018-05-31T09:03:05.176Z,30.30
2018-05-31T09:04:10.928Z,30.40
2018-05-31T09:05:05.495Z,30.30
2018-05-31T09:06:05.277Z,30.40
2018-05-31T09:07:05.928Z,30.40
2018-05-31T09:08:13.393Z,30.50
2018-05-31T09:09:05.859Z,30.50
2018-05-31T09:10:05.800Z,30.50
2018-05-31T09:11:05.770Z,30.50
2018-05-31T09:12:07.948Z,30.50
2018-05-31T09:13:08.234Z,30.50
2018-05-31T09:14:08.119Z,30.50
2018-05-31T09:15:05.398Z,30.50
2018-05-31T09:16:08.712Z,30.60
2018-05-31T09:17:07.827Z,30.70
2018-05-31T09:18:05.588Z,30.60
2018-05-31T09:19:05.244Z,30.70
2018-05-31T09:20:05.853Z,30.70
2018-05-31T09:21:10.473Z,30.60
2018-05-31T09:22:05.949Z,30.60
2018-05-31T09:23:05.561Z,30.60
2018-05-31T09:24:05.523Z,30.60
2018-05-31T09:25:08.106Z,30.60
2018-05-31T09:26:05.691Z,30.60
2018-05-31T09:27:10.700Z,30.60
2018-05-31T09:28:08.537Z,30.70
2018-05-31T09:29:06.099Z,30.60
2018-05-31T09:30:05.438Z,30.70
2018-05-31T09:31:08.723Z,30.80
2018-05-31T09:32:05.613Z,30.70
2018-05-31T09:33:06.132Z,30.80
2018-05-31T09:34:05.768Z,30.90
2018-05-31T09:35:05.705Z,30.90
2018-05-31T09:36:05.960Z,30.90
2018-05-31T09:37:05.902Z,30.90
2018-05-31T09:38:08.268Z,30.90
2018-05-31T09:39:05.959Z,31.00
2018-05-31T09:40:05.981Z,31.00
2018-05-31T09:41:05.675Z,31.00
2018-05-31T09:42:05.898Z,31.10
2018-05-31T09:43:06.367Z,31.10
2018-05-31T09:44:06.340Z,31.20
2018-05-31T09:45:06.065Z,31.20
2018-05-31T09:46:05.973Z,31.30
2018-05-31T09:47:08.443Z,31.30
2018-05-31T09:48:08.550Z,31.40
2018-05-31T09:49:06.196Z,31.40
2018-05-31T09:50:05.311Z,31.40
2018-05-31T09:51:05.285Z,31.40
2018-05-31T09:52:05.996Z,31.40
2018-05-31T09:53:08.189Z,31.40
2018-05-31T09:54:05.879Z,31.40
2018-05-31T09:55:05.551Z,31.50
2018-05-31T09:56:08.608Z,31.50
2018-05-31T09:57:05.164Z,31.50
2018-05-31T09:58:06.150Z,31.50
2018-05-31T09:59:08.404Z,31.60
2018-05-31T10:00:11.045Z,31.60
2018-05-31T10:01:06.144Z,31.60
2018-05-31T10:02:05.900Z,31.60
2018-05-31T10:03:07.806Z,31.70
2018-05-31T10:04:05.636Z,31.70
2018-05-31T10:05:05.232Z,31.70
2018-05-31T10:06:06.026Z,31.70
2018-05-31T10:07:05.991Z,31.70
2018-05-31T10:08:05.959Z,31.80
2018-05-31T10:09:07.904Z,31.80
2018-05-31T10:10:08.130Z,31.80
2018-05-31T10:11:05.722Z,31.80
2018-05-31T10:12:05.686Z,31.80
2018-05-31T10:13:05.788Z,31.80
2018-05-31T10:14:08.379Z,31.80
2018-05-31T10:15:07.841Z,31.70
2018-05-31T10:16:05.721Z,31.70
2018-05-31T10:17:05.485Z,30.90
2018-05-31T10:18:07.830Z,31.80
2018-05-31T10:19:07.827Z,31.70
2018-05-31T10:20:05.414Z,31.70
2018-05-31T10:21:06.178Z,31.60
2018-05-31T10:22:05.971Z,31.60
2018-05-31T10:23:05.907Z,31.50
2018-05-31T10:24:06.113Z,31.50
2018-05-31T10:25:05.889Z,31.60
2018-05-31T10:26:05.505Z,31.50
2018-05-31T10:27:08.046Z,31.60
2018-05-31T10:28:08.251Z,31.60
2018-05-31T10:29:08.389Z,31.60
2018-05-31T10:30:08.166Z,31.70
2018-05-31T10:31:05.906Z,31.70
2018-05-31T10:32:13.446Z,31.70
2018-05-31T10:33:11.112Z,31.70
2018-05-31T10:34:05.886Z,31.70
2018-05-31T10:35:06.692Z,31.70
2018-05-31T10:36:05.433Z,31.70
2018-05-31T10:37:08.071Z,31.60
2018-05-31T10:38:05.627Z,31.60
2018-05-31T10:39:10.614Z,31.50
2018-05-31T10:40:06.038Z,31.50
2018-05-31T10:41:05.805Z,31.40
2018-05-31T10:42:05.802Z,31.30
2018-05-31T10:43:08.373Z,31.30
2018-05-31T10:44:08.432Z,31.30
2018-05-31T10:45:08.435Z,31.20
2018-05-31T10:46:06.276Z,31.20
2018-05-31T10:47:09.587Z,31.20
2018-05-31T10:48:08.181Z,31.20
2018-05-31T10:49:05.586Z,31.20
2018-05-31T10:50:05.769Z,31.20
2018-05-31T10:51:10.588Z,31.10
2018-05-31T10:52:05.918Z,31.10
2018-05-31T10:53:10.779Z,31.10
2018-05-31T10:54:06.039Z,31.10
2018-05-31T10:55:06.126Z,31.00
2018-05-31T10:56:08.407Z,31.00
2018-05-31T10:57:06.065Z,31.00
2018-05-31T10:58:05.896Z,31.00
2018-05-31T10:59:06.361Z,31.10
2018-05-31T11:00:08.588Z,31.10
2018-05-31T11:01:11.269Z,31.20
2018-05-31T11:02:08.216Z,31.20
2018-05-31T11:03:10.889Z,31.20
2018-05-31T11:04:07.672Z,31.20
2018-05-31T11:05:07.910Z,31.30
2018-05-31T11:06:05.544Z,31.30
2018-05-31T11:07:05.811Z,31.30
2018-05-31T11:08:08.756Z,31.30
2018-05-31T11:09:05.727Z,31.30
2018-05-31T11:10:07.926Z,31.30
2018-05-31T11:11:08.003Z,31.30
2018-05-31T11:12:05.960Z,31.20
2018-05-31T11:13:06.101Z,31.20
2018-05-31T11:14:13.763Z,31.10
2018-05-31T11:15:05.376Z,31.10
2018-05-31T11:16:06.407Z,31.10
2018-05-31T11:17:05.721Z,31.10
2018-05-31T11:18:10.458Z,31.10
2018-05-31T11:19:08.686Z,31.10
2018-05-31T11:20:05.236Z,31.10
2018-05-31T11:21:07.755Z,31.20
2018-05-31T11:22:10.534Z,31.20
2018-05-31T11:23:10.621Z,31.20
2018-05-31T11:24:08.894Z,31.30
2018-05-31T11:25:08.532Z,31.20
2018-05-31T11:26:06.133Z,31.20
2018-05-31T11:27:08.293Z,31.10
2018-05-31T11:28:05.793Z,31.10
2018-05-31T11:29:06.116Z,31.10
2018-05-31T11:30:08.639Z,30.90
2018-05-31T11:31:11.274Z,30.90
2018-05-31T11:32:05.882Z,30.90
2018-05-31T11:33:06.233Z,30.90
2018-05-31T11:34:05.900Z,30.90
2018-05-31T11:35:13.148Z,30.90
2018-05-31T11:36:05.834Z,31.00
2018-05-31T11:37:05.908Z,31.00
2018-05-31T11:38:13.564Z,31.10
2018-05-31T11:39:06.232Z,31.10
2018-05-31T11:40:05.453Z,31.10
2018-05-31T11:41:06.087Z,31.10
2018-05-31T11:42:05.919Z,31.10
2018-05-31T11:43:06.238Z,31.10
2018-05-31T11:44:06.520Z,31.10
2018-05-31T11:45:05.654Z,31.10
2018-05-31T11:46:05.608Z,31.10
2018-05-31T11:47:05.823Z,31.10
2018-05-31T11:48:08.192Z,31.00
2018-05-31T11:49:06.288Z,31.00
2018-05-31T11:50:11.031Z,30.80
2018-05-31T11:51:10.801Z,30.80
2018-05-31T11:52:05.360Z,30.80
2018-05-31T11:53:08.293Z,30.80
2018-05-31T11:54:08.386Z,30.70
2018-05-31T11:55:06.069Z,30.70
2018-05-31T11:56:10.605Z,30.70
2018-05-31T11:57:06.148Z,30.70
2018-05-31T11:58:08.422Z,30.70
2018-05-31T11:59:06.026Z,30.70
2018-05-31T12:00:05.878Z,30.60
2018-05-31T12:01:05.471Z,30.60
2018-05-31T12:02:06.213Z,30.50
2018-05-31T12:03:08.404Z,30.40
2018-05-31T12:04:11.204Z,30.30
2018-05-31T12:05:05.971Z,30.30
2018-05-31T12:06:08.249Z,30.20
2018-05-31T12:07:05.835Z,30.20
2018-05-31T12:08:08.502Z,30.10
2018-05-31T12:09:05.314Z,30.10
2018-05-31T12:10:06.054Z,30.00
2018-05-31T12:11:05.665Z,29.90
2018-05-31T12:12:11.592Z,29.80
2018-05-31T12:13:05.221Z,29.80
2018-05-31T12:14:08.625Z,29.70
2018-05-31T12:15:10.347Z,29.70
2018-05-31T12:16:06.058Z,29.70
2018-05-31T12:17:10.860Z,29.70
2018-05-31T12:18:05.366Z,29.70
2018-05-31T12:19:10.312Z,29.80
2018-05-31T12:20:11.226Z,29.80
2018-05-31T12:21:08.341Z,29.80
2018-05-31T12:22:05.462Z,29.80
2018-05-31T12:23:06.605Z,30.00
2018-05-31T12:24:06.053Z,30.00
2018-05-31T12:25:11.184Z,30.10
2018-05-31T12:26:05.914Z,30.10
2018-05-31T12:27:10.790Z,30.20
2018-05-31T12:28:05.480Z,30.20
2018-05-31T12:29:05.209Z,30.20
2018-05-31T12:30:08.108Z,30.20
2018-05-31T12:31:10.424Z,30.30
2018-05-31T12:32:06.013Z,30.30
2018-05-31T12:33:05.915Z,30.30
2018-05-31T12:34:10.726Z,30.30
2018-05-31T12:35:05.719Z,30.40
2018-05-31T12:36:10.924Z,30.40
2018-05-31T12:37:05.508Z,30.40
2018-05-31T12:38:07.837Z,30.40
2018-05-31T12:39:05.704Z,30.30
2018-05-31T12:40:10.372Z,30.20
2018-05-31T12:41:08.447Z,30.20
2018-05-31T12:42:05.807Z,30.10
2018-05-31T12:43:05.892Z,30.10
2018-05-31T12:44:05.634Z,30.00
2018-05-31T12:45:05.434Z,30.00
2018-05-31T12:46:05.521Z,29.90
2018-05-31T12:47:05.637Z,29.80
2018-05-31T12:48:08.149Z,29.80
2018-05-31T12:49:08.225Z,29.70
2018-05-31T12:50:05.749Z,29.70
2018-05-31T12:51:05.548Z,29.70
2018-05-31T12:52:10.376Z,29.60